createdAt,value
2019-03-22T08:52:06.428Z,26.17
2019-03-22T08:52:16.582Z,23.29
2019-03-22T08:52:26.794Z,22.70
2019-03-22T08:52:36.963Z,22.71
2019-03-22T08:52:47.149Z,25.19
2019-03-22T08:52:57.401Z,24.69
2019-03-22T08:53:08.387Z,23.60
2019-03-22T08:53:18.550Z,23.61
2019-03-22T08:53:31.350Z,23.22
2019-03-22T08:53:54.399Z,25.81
2019-03-22T08:53:57.628Z,24.12
2019-03-22T08:54:12.740Z,23.72
2019-03-22T08:54:22.977Z,23.63
2019-03-22T08:54:33.154Z,23.43
2019-03-22T08:54:43.298Z,23.63
2019-03-22T08:54:54.362Z,23.52
2019-03-22T08:55:04.550Z,23.43
2019-03-22T08:55:19.602Z,23.33
2019-03-22T08:55:29.772Z,23.43
2019-03-22T08:55:39.942Z,23.43
2019-03-22T08:55:50.088Z,23.83
2019-03-22T08:56:00.242Z,24.04
2019-03-22T08:56:10.419Z,23.64
2019-03-22T08:56:20.566Z,23.54
2019-03-22T08:56:30.796Z,23.54
2019-03-22T08:56:41.008Z,23.44
2019-03-22T08:56:51.235Z,23.44
2019-03-22T08:57:01.417Z,23.34
2019-03-22T08:57:11.598Z,23.44
2019-03-22T08:57:24.812Z,23.44
2019-03-22T08:57:35.378Z,23.54
2019-03-22T08:57:45.527Z,23.64
2019-03-22T08:57:55.688Z,23.65
2019-03-22T08:58:05.888Z,25.04
2019-03-22T08:58:18.501Z,24.24
2019-03-22T08:58:29.069Z,23.85
2019-03-22T08:58:39.265Z,23.75
2019-03-22T08:58:49.460Z,23.75
2019-03-22T08:58:59.629Z,23.55
2019-03-22T08:59:09.869Z,23.55
2019-03-22T08:59:20.078Z,23.65
2019-03-22T08:59:30.240Z,23.65
2019-03-22T08:59:40.382Z,23.85
2019-03-22T08:59:50.554Z,23.75
2019-03-22T09:00:00.696Z,23.75
2019-03-22T09:00:10.898Z,23.85
2019-03-22T09:00:21.113Z,23.85
2019-03-22T09:00:39.311Z,23.85
2019-03-22T09:00:57.209Z,23.85
2019-03-22T09:01:03.457Z,23.75
2019-03-22T09:01:13.644Z,23.75
2019-03-22T09:01:23.787Z,23.75
2019-03-22T09:01:33.986Z,23.65
2019-03-22T09:01:44.126Z,23.65
2019-03-22T09:01:54.290Z,23.65
2019-03-22T09:02:04.500Z,23.75
2019-03-22T09:02:14.659Z,23.75
2019-03-22T09:02:24.827Z,23.85
2019-03-22T09:02:35.082Z,23.85
2019-03-22T09:02:45.236Z,23.85
2019-03-22T09:02:55.394Z,23.85
2019-03-22T09:03:05.537Z,23.94
2019-03-22T09:03:15.685Z,24.15
2019-03-22T09:03:25.878Z,24.24
2019-03-22T09:03:36.025Z,24.24
2019-03-22T09:03:46.170Z,24.05
2019-03-22T09:03:56.347Z,24.05
2019-03-22T09:04:06.592Z,24.05
2019-03-22T09:04:16.876Z,24.05
2019-03-22T09:04:27.037Z,24.15
2019-03-22T09:04:37.178Z,24.05
2019-03-22T09:04:47.414Z,24.05
2019-03-22T09:04:57.582Z,24.64
2019-03-22T09:05:07.759Z,24.54
2019-03-22T09:05:17.902Z,24.34
2019-03-22T09:05:28.053Z,24.15
2019-03-22T09:05:38.261Z,24.15
2019-03-22T09:05:48.447Z,24.15
2019-03-22T09:06:04.527Z,24.15
2019-03-22T09:06:14.682Z,24.05
2019-03-22T09:06:24.823Z,24.15
2019-03-22T09:06:35.031Z,24.05
2019-03-22T09:06:45.205Z,23.94
2019-03-22T09:06:55.395Z,23.94
2019-03-22T09:07:05.544Z,23.94
2019-03-22T09:07:15.693Z,24.15
2019-03-22T09:07:25.833Z,24.15
2019-03-22T09:07:36.003Z,24.15
2019-03-22T09:07:48.829Z,24.15
2019-03-22T09:07:58.973Z,24.15
2019-03-22T09:08:09.158Z,24.15
2019-03-22T09:08:19.300Z,24.15
2019-03-22T09:08:29.448Z,24.15
2019-03-22T09:08:39.607Z,24.24
2019-03-22T09:08:49.761Z,31.90
2019-03-22T09:08:59.908Z,78.87
2019-03-22T09:09:10.066Z,86.69
2019-03-22T09:09:20.206Z,86.42
2019-03-22T09:09:40.965Z,84.92
2019-03-22T09:09:46.469Z,81.78
2019-03-22T09:09:56.620Z,85.28
2019-03-22T09:10:07.329Z,76.29
2019-03-22T09:10:17.465Z,78.32
2019-03-22T09:10:27.619Z,78.28
2019-03-22T09:10:38.438Z,37.05
2019-03-22T09:10:48.617Z,22.82
2019-03-22T09:10:58.761Z,21.07
2019-03-22T09:11:13.876Z,21.10
2019-03-22T09:11:24.017Z,21.11
2019-03-22T09:11:34.177Z,21.22
2019-03-22T09:11:44.360Z,21.44
2019-03-22T09:11:54.530Z,21.64
2019-03-22T09:12:04.734Z,21.75
2019-03-22T09:12:14.882Z,21.86
2019-03-22T09:12:26.917Z,22.07
2019-03-22T09:12:37.249Z,22.18
2019-03-22T09:12:47.385Z,22.48
2019-03-22T09:12:57.635Z,22.59
2019-03-22T09:13:07.866Z,22.69
2019-03-22T09:13:18.985Z,22.89
2019-03-22T09:13:29.175Z,23.00
2019-03-22T09:13:39.437Z,23.01
2019-03-22T09:13:49.725Z,22.91
2019-03-22T09:13:59.883Z,23.41
2019-03-22T09:14:10.168Z,23.32
2019-03-22T09:14:20.415Z,23.22
2019-03-22T09:14:30.579Z,23.12
2019-03-22T09:14:40.801Z,23.12
2019-03-22T09:14:50.942Z,23.33
2019-03-22T09:15:01.087Z,23.43
2019-03-22T09:15:11.222Z,23.43
2019-03-22T09:15:21.362Z,23.33
2019-03-22T09:15:41.158Z,23.43
2019-03-22T09:15:47.667Z,23.43
2019-03-22T09:15:57.809Z,23.52
2019-03-22T09:16:08.068Z,23.43
2019-03-22T09:16:18.213Z,23.33
2019-03-22T09:16:30.733Z,23.33
2019-03-22T09:16:41.103Z,23.33
2019-03-22T09:16:56.226Z,23.34
2019-03-22T09:17:06.486Z,23.24
2019-03-22T09:17:16.701Z,23.34
2019-03-22T09:17:26.950Z,23.34
2019-03-22T09:17:37.131Z,23.24
2019-03-22T09:17:47.356Z,23.24
2019-03-22T09:17:57.553Z,23.34
2019-03-22T09:18:07.772Z,23.44
2019-03-22T09:18:17.963Z,23.44
2019-03-22T09:18:28.152Z,23.44
2019-03-22T09:18:38.330Z,23.44
2019-03-22T09:18:48.471Z,23.44
2019-03-22T09:18:58.623Z,23.44
2019-03-22T09:19:08.775Z,23.44
2019-03-22T09:19:18.957Z,23.44
2019-03-22T09:19:29.134Z,23.44
2019-03-22T09:19:39.410Z,23.44
2019-03-22T09:19:51.173Z,23.44
2019-03-22T09:20:01.478Z,23.74
2019-03-22T09:20:11.740Z,23.64
2019-03-22T09:20:21.887Z,23.64
2019-03-22T09:20:32.077Z,23.74
2019-03-22T09:20:42.225Z,23.64
2019-03-22T09:20:52.371Z,23.54
2019-03-22T09:21:02.534Z,23.54
2019-03-22T09:21:12.722Z,23.44
2019-03-22T09:21:22.991Z,23.34
2019-03-22T09:21:33.121Z,23.74
2019-03-22T09:21:43.262Z,23.64
2019-03-22T09:21:53.433Z,23.54
2019-03-22T09:22:03.583Z,23.54
2019-03-22T09:22:13.733Z,23.44
2019-03-22T09:22:23.896Z,23.44
2019-03-22T09:22:34.089Z,23.34
2019-03-22T09:22:44.227Z,23.34
2019-03-22T09:22:54.395Z,23.34
2019-03-22T09:23:04.651Z,23.34
2019-03-22T09:23:14.838Z,23.54
2019-03-22T09:23:25.044Z,23.74
2019-03-22T09:23:35.184Z,23.74
2019-03-22T09:23:45.331Z,23.74
2019-03-22T09:23:55.505Z,24.13
2019-03-22T09:24:05.751Z,24.04
2019-03-22T09:24:15.911Z,23.64
2019-03-22T09:24:38.266Z,23.44
2019-03-22T09:24:42.171Z,23.44
2019-03-22T09:24:52.317Z,23.34
2019-03-22T09:25:02.496Z,23.34
2019-03-22T09:25:12.642Z,23.24
2019-03-22T09:25:22.787Z,23.34
2019-03-22T09:25:32.934Z,23.44
2019-03-22T09:25:43.108Z,23.54
2019-03-22T09:25:53.268Z,23.44
2019-03-22T09:26:03.478Z,23.34
2019-03-22T09:26:13.667Z,23.24
2019-03-22T09:26:23.844Z,23.34
2019-03-22T09:26:46.833Z,23.34
2019-03-22T09:26:50.147Z,23.34
2019-03-22T09:27:00.306Z,23.34
2019-03-22T09:27:10.466Z,23.24
2019-03-22T09:27:20.656Z,23.34
2019-03-22T09:27:30.805Z,23.34
2019-03-22T09:27:40.964Z,23.24
2019-03-22T09:27:51.126Z,23.14
2019-03-22T09:28:01.316Z,23.14
2019-03-22T09:28:11.472Z,23.24
2019-03-22T09:28:21.643Z,23.24
2019-03-22T09:28:31.842Z,23.14
2019-03-22T09:28:41.997Z,23.14
2019-03-22T09:28:52.165Z,23.04
2019-03-22T09:29:02.340Z,23.04
2019-03-22T09:29:12.503Z,23.04
2019-03-22T09:29:22.702Z,23.04
2019-03-22T09:29:38.758Z,23.04
2019-03-22T09:29:48.920Z,23.34
2019-03-22T09:29:59.867Z,23.34
2019-03-22T09:30:10.054Z,23.34
2019-03-22T09:30:20.236Z,23.24
2019-03-22T09:30:30.415Z,23.24
2019-03-22T09:30:40.587Z,23.14
2019-03-22T09:30:50.742Z,23.14
2019-03-22T09:31:10.179Z,23.14
2019-03-22T09:31:17.008Z,23.04
2019-03-22T09:31:27.178Z,23.04
2019-03-22T09:31:37.336Z,23.14
2019-03-22T09:31:47.482Z,23.14
2019-03-22T09:31:57.625Z,23.24
2019-03-22T09:32:07.798Z,23.24
2019-03-22T09:32:18.001Z,23.24
2019-03-22T09:32:28.217Z,23.24
2019-03-22T09:32:38.396Z,23.34
2019-03-22T09:32:48.628Z,23.34
2019-03-22T09:32:58.788Z,23.34
2019-03-22T09:33:08.946Z,23.44
2019-03-22T09:33:19.099Z,23.34
2019-03-22T09:33:29.285Z,23.34
2019-03-22T09:33:39.443Z,23.34
2019-03-22T09:33:49.610Z,23.34
2019-03-22T09:33:59.769Z,23.24
2019-03-22T09:34:09.916Z,23.24
2019-03-22T09:34:32.929Z,23.14
2019-03-22T09:34:36.201Z,23.14
2019-03-22T09:34:46.352Z,23.14
2019-03-22T09:34:56.517Z,23.04
2019-03-22T09:35:06.717Z,23.04
2019-03-22T09:35:16.866Z,23.14
2019-03-22T09:35:27.028Z,23.14
2019-03-22T09:35:37.172Z,23.14
2019-03-22T09:35:47.366Z,23.14
2019-03-22T09:35:57.523Z,23.04
2019-03-22T09:36:08.343Z,23.14
2019-03-22T09:36:18.504Z,23.14
2019-03-22T09:36:28.665Z,23.14
2019-03-22T09:36:38.824Z,23.04
2019-03-22T09:36:49.035Z,23.04
2019-03-22T09:36:59.197Z,23.83
2019-03-22T09:37:09.405Z,24.23
2019-03-22T09:37:19.555Z,23.74
2019-03-22T09:37:29.795Z,23.44
2019-03-22T09:37:40.830Z,23.14
2019-03-22T09:37:50.977Z,23.04
2019-03-22T09:38:12.378Z,23.04
2019-03-22T09:38:17.244Z,22.94
2019-03-22T09:38:28.564Z,22.94
2019-03-22T09:38:38.940Z,22.94
2019-03-22T09:38:49.896Z,22.94
2019-03-22T09:39:00.085Z,22.94
2019-03-22T09:39:10.238Z,22.84
2019-03-22T09:39:20.382Z,22.74
2019-03-22T09:39:30.551Z,22.74
2019-03-22T09:39:40.702Z,22.74
2019-03-22T09:39:50.842Z,22.84
2019-03-22T09:40:01.036Z,22.94
2019-03-22T09:40:11.184Z,22.94
2019-03-22T09:40:21.330Z,22.84
2019-03-22T09:40:31.524Z,22.94
2019-03-22T09:40:41.699Z,23.04
2019-03-22T09:40:51.905Z,23.04
2019-03-22T09:41:02.061Z,23.04
2019-03-22T09:41:12.285Z,23.04
2019-03-22T09:41:27.386Z,22.84
2019-03-22T09:41:37.532Z,22.84
2019-03-22T09:41:47.695Z,22.84
2019-03-22T09:41:57.869Z,22.84
2019-03-22T09:42:08.024Z,22.84
2019-03-22T09:42:18.176Z,22.74
2019-03-22T09:42:28.364Z,22.74
2019-03-22T09:42:38.535Z,22.84
2019-03-22T09:42:49.193Z,22.84
2019-03-22T09:42:59.370Z,22.84
2019-03-22T09:43:09.559Z,23.24
2019-03-22T09:43:19.742Z,23.64
2019-03-22T09:43:29.907Z,23.24
2019-03-22T09:43:40.104Z,22.84
2019-03-22T09:43:50.257Z,22.64
2019-03-22T09:44:00.413Z,22.55
2019-03-22T09:44:10.578Z,22.55
2019-03-22T09:44:20.755Z,22.53
2019-03-22T09:44:42.787Z,22.64
2019-03-22T09:44:47.034Z,22.44
2019-03-22T09:44:57.198Z,22.44
2019-03-22T09:45:07.340Z,22.44
2019-03-22T09:45:17.486Z,22.44
2019-03-22T09:45:27.633Z,22.44
2019-03-22T09:45:37.773Z,22.44
2019-03-22T09:45:47.939Z,22.55
2019-03-22T09:45:58.097Z,22.44
2019-03-22T09:46:08.234Z,22.55
2019-03-22T09:46:18.482Z,22.44
2019-03-22T09:46:28.659Z,22.55
2019-03-22T09:46:43.789Z,22.64
2019-03-22T09:46:54.002Z,22.55
2019-03-22T09:47:04.179Z,22.44
2019-03-22T09:47:16.562Z,22.53
2019-03-22T09:47:30.414Z,27.50
2019-03-22T09:47:40.613Z,24.02
2019-03-22T09:47:50.810Z,24.02
2019-03-22T09:48:01.020Z,22.83
2019-03-22T09:48:11.234Z,22.52
2019-03-22T09:48:21.394Z,22.14
2019-03-22T09:48:31.550Z,22.14
2019-03-22T09:48:41.749Z,22.03
2019-03-22T09:48:51.898Z,22.14
2019-03-22T09:49:02.069Z,22.14
2019-03-22T09:49:12.212Z,22.14
2019-03-22T09:49:22.385Z,22.14
2019-03-22T09:49:32.561Z,22.03
2019-03-22T09:49:42.705Z,22.03
2019-03-22T09:49:52.880Z,22.03
2019-03-22T09:50:03.044Z,22.03
2019-03-22T09:50:13.205Z,22.03
2019-03-22T09:50:23.404Z,22.03
2019-03-22T09:50:33.623Z,22.03
2019-03-22T09:50:43.762Z,21.94
2019-03-22T09:50:53.942Z,21.94
2019-03-22T09:51:04.099Z,21.84
2019-03-22T09:51:14.251Z,21.94
2019-03-22T09:51:24.443Z,21.94
2019-03-22T09:51:34.656Z,22.73
2019-03-22T09:51:44.843Z,25.12
2019-03-22T09:51:55.431Z,23.52
2019-03-22T09:52:05.778Z,22.44
2019-03-22T09:52:15.934Z,22.14
2019-03-22T09:52:26.076Z,22.03
2019-03-22T09:52:36.214Z,21.92
2019-03-22T09:52:46.396Z,21.92
2019-03-22T09:52:56.662Z,21.83
2019-03-22T09:53:06.849Z,21.73
2019-03-22T09:53:16.984Z,21.53
2019-03-22T09:53:30.301Z,22.33
2019-03-22T09:53:40.703Z,21.73
2019-03-22T09:53:50.855Z,21.62
2019-03-22T09:54:00.985Z,21.52
2019-03-22T09:54:11.119Z,21.62
2019-03-22T09:54:21.255Z,21.52
2019-03-22T09:54:31.424Z,21.62
2019-03-22T09:54:41.600Z,21.52
2019-03-22T09:54:51.732Z,21.53
2019-03-22T09:55:12.478Z,21.63
2019-03-22T09:55:18.047Z,21.83
2019-03-22T09:55:28.192Z,22.03
2019-03-22T09:55:38.360Z,22.03
2019-03-22T09:55:48.502Z,22.14
2019-03-22T09:55:58.708Z,22.24
2019-03-22T09:56:08.860Z,22.33
2019-03-22T09:56:19.018Z,22.44
2019-03-22T09:56:29.165Z,22.93
2019-03-22T09:56:47.068Z,22.63
2019-03-22T09:56:55.475Z,22.44
2019-03-22T09:57:05.711Z,22.25
2019-03-22T09:57:15.882Z,22.34
2019-03-22T09:57:26.097Z,22.55
2019-03-22T09:57:36.271Z,22.64
2019-03-22T09:57:49.245Z,22.74
2019-03-22T09:57:59.651Z,22.74
2019-03-22T09:58:09.807Z,22.55
2019-03-22T09:58:20.027Z,22.34
2019-03-22T09:58:30.163Z,22.34
2019-03-22T09:58:40.339Z,22.34
2019-03-22T09:58:50.501Z,22.25
2019-03-22T09:59:00.641Z,22.25
2019-03-22T09:59:10.817Z,22.14
2019-03-22T09:59:21.000Z,22.14
2019-03-22T09:59:31.169Z,22.14
2019-03-22T09:59:41.331Z,22.14
2019-03-22T09:59:51.491Z,22.14
2019-03-22T10:00:01.685Z,22.14
2019-03-22T10:00:11.849Z,22.14
2019-03-22T10:00:21.987Z,22.25
2019-03-22T10:00:32.146Z,22.34
2019-03-22T10:00:42.342Z,22.44
2019-03-22T10:00:52.543Z,22.25
2019-03-22T10:01:02.796Z,22.14
2019-03-22T10:01:23.175Z,22.25
2019-03-22T10:01:29.138Z,22.34
2019-03-22T10:01:39.338Z,22.55
2019-03-22T10:01:49.509Z,22.55
2019-03-22T10:01:59.742Z,22.55
2019-03-22T10:02:09.935Z,22.44
2019-03-22T10:02:20.119Z,22.44
2019-03-22T10:02:30.268Z,22.34
2019-03-22T10:02:40.451Z,22.34
2019-03-22T10:02:50.602Z,22.34
2019-03-22T10:03:00.806Z,22.34
2019-03-22T10:03:10.973Z,22.25
2019-03-22T10:03:21.112Z,22.14
2019-03-22T10:03:31.267Z,22.14
2019-03-22T10:03:42.643Z,22.25
2019-03-22T10:03:52.955Z,22.14
2019-03-22T10:04:03.091Z,22.14
2019-03-22T10:04:13.239Z,22.14
2019-03-22T10:04:23.372Z,22.25
2019-03-22T10:04:33.509Z,22.25
2019-03-22T10:04:43.681Z,22.05
2019-03-22T10:04:53.896Z,21.95
2019-03-22T10:05:04.104Z,21.84
2019-03-22T10:05:14.265Z,21.74
2019-03-22T10:05:24.421Z,21.94
2019-03-22T10:05:34.563Z,21.92
2019-03-22T10:05:44.727Z,21.73
2019-03-22T10:05:54.895Z,21.63
2019-03-22T10:06:05.042Z,21.63
2019-03-22T10:06:15.181Z,21.83
2019-03-22T10:06:25.376Z,21.83
2019-03-22T10:06:35.568Z,21.84
2019-03-22T10:06:45.935Z,21.94
2019-03-22T10:06:56.111Z,21.94
2019-03-22T10:07:06.293Z,21.84
2019-03-22T10:07:16.477Z,21.94
2019-03-22T10:07:26.669Z,21.94
2019-03-22T10:07:36.828Z,22.03
2019-03-22T10:07:49.983Z,22.14
2019-03-22T10:08:00.323Z,22.03
2019-03-22T10:08:10.527Z,22.03
2019-03-22T10:08:20.762Z,21.92
2019-03-22T10:08:30.910Z,21.94
2019-03-22T10:08:41.065Z,21.94
2019-03-22T10:08:51.242Z,21.94
2019-03-22T10:09:05.074Z,21.84
2019-03-22T10:09:15.552Z,21.94
2019-03-22T10:09:25.698Z,22.03
2019-03-22T10:09:35.899Z,22.14
2019-03-22T10:09:46.037Z,22.14
2019-03-22T10:09:56.276Z,22.03
2019-03-22T10:10:06.414Z,22.03
2019-03-22T10:10:16.548Z,21.94
2019-03-22T10:10:26.674Z,22.03
2019-03-22T10:10:36.804Z,22.03
2019-03-22T10:10:47.003Z,21.94
2019-03-22T10:10:57.138Z,21.83
2019-03-22T10:11:07.353Z,21.74
2019-03-22T10:11:17.514Z,21.64
2019-03-22T10:11:27.653Z,21.74
2019-03-22T10:11:37.853Z,21.84
2019-03-22T10:11:48.039Z,21.84
2019-03-22T10:11:58.222Z,21.84
2019-03-22T10:12:08.376Z,21.84
2019-03-22T10:12:18.526Z,21.74
2019-03-22T10:12:28.739Z,21.74
2019-03-22T10:12:38.910Z,21.74
2019-03-22T10:12:49.044Z,21.74
2019-03-22T10:12:59.273Z,21.84
2019-03-22T10:13:09.434Z,21.94
2019-03-22T10:13:19.578Z,21.94
2019-03-22T10:13:29.755Z,21.94
2019-03-22T10:13:39.944Z,21.84
2019-03-22T10:13:50.091Z,21.94
2019-03-22T10:14:00.291Z,22.03
2019-03-22T10:14:10.479Z,22.14
2019-03-22T10:14:21.437Z,22.24
2019-03-22T10:14:31.815Z,22.14
2019-03-22T10:14:42.018Z,21.92
2019-03-22T10:14:52.156Z,21.83
2019-03-22T10:15:02.294Z,21.73
2019-03-22T10:15:12.468Z,21.63
2019-03-22T10:15:22.619Z,21.63
2019-03-22T10:15:32.819Z,21.73
2019-03-22T10:15:43.000Z,21.74
2019-03-22T10:15:53.131Z,21.54
2019-03-22T10:16:03.279Z,21.54
2019-03-22T10:16:13.411Z,21.54
2019-03-22T10:16:23.585Z,21.64
2019-03-22T10:16:33.740Z,21.84
2019-03-22T10:16:43.874Z,22.03
2019-03-22T10:16:54.035Z,22.03
2019-03-22T10:17:04.274Z,21.73
2019-03-22T10:17:14.422Z,21.83
2019-03-22T10:17:24.559Z,21.82
2019-03-22T10:17:34.696Z,21.72
2019-03-22T10:17:44.834Z,21.62
2019-03-22T10:17:55.047Z,21.52
2019-03-22T10:18:05.247Z,21.52
2019-03-22T10:18:15.465Z,21.52
2019-03-22T10:18:25.608Z,21.42
2019-03-22T10:18:36.978Z,21.52
2019-03-22T10:18:47.218Z,21.63
2019-03-22T10:18:57.356Z,21.73
2019-03-22T10:19:07.495Z,21.73
2019-03-22T10:19:17.646Z,21.73
2019-03-22T10:19:27.791Z,21.83
2019-03-22T10:19:37.943Z,21.92
2019-03-22T10:19:48.092Z,21.83
2019-03-22T10:19:58.266Z,21.83
2019-03-22T10:20:08.537Z,21.83
2019-03-22T10:20:18.691Z,21.73
2019-03-22T10:20:28.821Z,21.73
2019-03-22T10:20:38.973Z,21.73
2019-03-22T10:20:49.133Z,21.83
2019-03-22T10:20:59.322Z,21.92
2019-03-22T10:21:21.953Z,21.92
2019-03-22T10:21:25.552Z,21.92
2019-03-22T10:21:35.716Z,21.92
2019-03-22T10:21:45.860Z,21.92
2019-03-22T10:21:56.009Z,22.03
2019-03-22T10:22:06.233Z,22.03
2019-03-22T10:22:16.378Z,21.92
2019-03-22T10:22:26.593Z,21.92
2019-03-22T10:22:36.828Z,21.92
2019-03-22T10:22:47.005Z,21.92
2019-03-22T10:22:57.203Z,21.92
2019-03-22T10:23:07.367Z,22.03
2019-03-22T10:23:17.539Z,22.03
2019-03-22T10:23:27.702Z,22.14
2019-03-22T10:23:37.842Z,22.14
2019-03-22T10:23:47.987Z,22.14
2019-03-22T10:23:58.240Z,22.14
2019-03-22T10:24:08.432Z,22.14
2019-03-22T10:24:18.584Z,22.14
2019-03-22T10:24:28.721Z,22.24
2019-03-22T10:24:38.917Z,22.24
2019-03-22T10:24:49.075Z,22.24
2019-03-22T10:24:59.261Z,22.14
2019-03-22T10:25:09.388Z,22.25
2019-03-22T10:25:19.560Z,22.34
2019-03-22T10:25:29.734Z,22.34
2019-03-22T10:25:39.883Z,22.33
2019-03-22T10:25:50.088Z,22.33
2019-03-22T10:26:00.219Z,22.44
2019-03-22T10:26:10.414Z,22.42
2019-03-22T10:26:20.570Z,22.33
2019-03-22T10:26:30.708Z,22.13
2019-03-22T10:26:40.887Z,22.13
2019-03-22T10:26:51.073Z,22.13
2019-03-22T10:27:01.240Z,22.22
2019-03-22T10:27:11.445Z,22.22
2019-03-22T10:27:21.587Z,22.22
2019-03-22T10:27:31.952Z,22.33
2019-03-22T10:27:42.143Z,22.24
2019-03-22T10:27:52.270Z,22.33
2019-03-22T10:28:02.409Z,22.33
2019-03-22T10:28:12.569Z,22.14
2019-03-22T10:28:22.699Z,22.14
2019-03-22T10:28:32.854Z,22.24
2019-03-22T10:28:42.992Z,22.24
2019-03-22T10:28:53.128Z,22.14
2019-03-22T10:29:03.309Z,22.03
2019-03-22T10:29:13.761Z,22.03
2019-03-22T10:29:23.967Z,21.92
2019-03-22T10:29:34.104Z,21.73
2019-03-22T10:29:44.278Z,21.62
2019-03-22T10:29:54.441Z,21.52
2019-03-22T10:30:04.695Z,21.42
2019-03-22T10:30:14.890Z,21.53
2019-03-22T10:30:25.075Z,21.63
2019-03-22T10:30:35.237Z,21.52
2019-03-22T10:30:45.412Z,21.42
2019-03-22T10:30:55.603Z,21.52
2019-03-22T10:31:05.775Z,21.52
2019-03-22T10:31:15.926Z,21.52
2019-03-22T10:31:36.379Z,21.52
2019-03-22T10:31:42.176Z,21.52
2019-03-22T10:31:52.306Z,21.52
2019-03-22T10:32:02.440Z,21.41
2019-03-22T10:32:12.591Z,21.31
2019-03-22T10:32:23.962Z,21.42
2019-03-22T10:32:34.302Z,21.32
2019-03-22T10:32:44.527Z,21.32
2019-03-22T10:32:54.714Z,21.32
2019-03-22T10:33:04.851Z,21.42
2019-03-22T10:33:22.639Z,21.43
2019-03-22T10:33:31.125Z,21.53
2019-03-22T10:33:41.282Z,21.63
2019-03-22T10:33:51.449Z,21.53
2019-03-22T10:34:01.633Z,21.53
2019-03-22T10:34:11.781Z,21.63
2019-03-22T10:34:21.913Z,21.53
2019-03-22T10:34:32.083Z,21.53
2019-03-22T10:34:42.214Z,21.54
2019-03-22T10:34:52.374Z,21.64
2019-03-22T10:35:02.533Z,21.74
2019-03-22T10:35:25.433Z,21.64
2019-03-22T10:35:28.816Z,21.64
2019-03-22T10:35:39.120Z,21.64
2019-03-22T10:35:49.288Z,21.73
2019-03-22T10:35:59.419Z,21.83
2019-03-22T10:36:09.568Z,21.73
2019-03-22T10:36:19.704Z,21.73
2019-03-22T10:36:29.914Z,21.73
2019-03-22T10:36:40.060Z,21.83
2019-03-22T10:36:50.249Z,21.82
2019-03-22T10:37:00.421Z,21.62
2019-03-22T10:37:10.599Z,21.42
2019-03-22T10:37:20.737Z,21.52
2019-03-22T10:37:30.867Z,21.32
2019-03-22T10:37:41.000Z,21.42
2019-03-22T10:37:51.156Z,21.42
2019-03-22T10:38:04.616Z,21.42
2019-03-22T10:38:16.222Z,21.42
2019-03-22T10:38:31.810Z,21.41
2019-03-22T10:38:43.155Z,21.21
2019-03-22T10:38:53.339Z,21.11
2019-03-22T10:39:03.474Z,21.00
2019-03-22T10:39:13.616Z,21.00
2019-03-22T10:39:23.772Z,21.00
2019-03-22T10:39:33.992Z,20.90
2019-03-22T10:39:44.151Z,21.00
2019-03-22T10:39:54.416Z,21.11
2019-03-22T10:40:04.617Z,21.01
2019-03-22T10:40:14.774Z,21.01
2019-03-22T10:40:25.034Z,21.11
2019-03-22T10:40:35.225Z,21.21
2019-03-22T10:40:45.410Z,21.21
2019-03-22T10:40:55.712Z,21.31
2019-03-22T10:41:05.921Z,21.41
2019-03-22T10:41:16.101Z,21.41
2019-03-22T10:41:26.303Z,21.41
2019-03-22T10:41:36.467Z,21.41
2019-03-22T10:41:46.675Z,21.51
2019-03-22T10:41:56.934Z,21.21
2019-03-22T10:42:07.266Z,21.11
2019-03-22T10:42:17.528Z,21.11
2019-03-22T10:42:27.693Z,21.11
2019-03-22T10:42:37.850Z,21.01
2019-03-22T10:42:48.090Z,21.11
2019-03-22T10:42:58.333Z,21.11
2019-03-22T10:43:08.547Z,21.21
2019-03-22T10:43:18.699Z,21.21
2019-03-22T10:43:28.837Z,21.31
2019-03-22T10:43:39.010Z,21.32
2019-03-22T10:43:49.139Z,21.31
2019-03-22T10:43:59.344Z,21.21
2019-03-22T10:44:09.486Z,21.32
2019-03-22T10:45:33.438Z,21.85
2019-03-22T10:46:08.927Z,22.
2019-03-22T10:46:19.215Z,22.
2019-03-22T10:46:35.263Z,22.
2019-03-22T10:46:45.434Z,22.
2019-03-22T10:46:55.659Z,22.
2019-03-22T10:47:05.854Z,22.
2019-03-22T10:47:18.041Z,22.
2019-03-22T10:47:28.574Z,22.
2019-03-22T10:47:38.774Z,22.
2019-03-22T10:47:49.035Z,22.
2019-03-22T10:47:59.212Z,22.
2019-03-22T10:48:09.501Z,22.
2019-03-22T10:48:19.774Z,22.
2019-03-22T10:48:29.985Z,22.
2019-03-22T10:48:40.858Z,22.
2019-03-22T10:48:51.153Z,22.
2019-03-22T10:49:01.351Z,22.
2019-03-22T10:49:11.510Z,23.
2019-03-22T10:49:21.670Z,23.
2019-03-22T10:49:31.892Z,74.
2019-03-22T10:49:42.383Z,89.
2019-03-22T10:49:52.674Z,94.
2019-03-22T10:50:02.849Z,95.
2019-03-22T10:50:13.013Z,96.
2019-03-22T10:50:23.228Z,98.
2019-03-22T10:50:33.401Z,98.
2019-03-22T10:50:45.334Z,80.
2019-03-22T10:50:56.315Z,29.
2019-03-22T10:51:06.488Z,23.
2019-03-22T10:51:16.650Z,22.
2019-03-22T10:53:25.653Z,22.
2019-03-22T10:53:35.817Z,22.
2019-03-22T10:53:45.986Z,22.
2019-03-22T10:53:56.196Z,22.
2019-03-22T10:54:06.371Z,22.
2019-03-22T10:54:16.587Z,22.
2019-03-22T10:54:26.752Z,22.
2019-03-22T10:54:36.918Z,22.
2019-03-22T10:54:47.065Z,22.
2019-03-22T10:54:57.245Z,22.
2019-03-22T10:55:23.540Z,22.
2019-03-22T10:55:29.652Z,22.
2019-03-22T10:55:39.705Z,22.
2019-03-22T10:55:49.860Z,22.
2019-03-22T10:56:00.017Z,22.
2019-03-22T10:56:10.184Z,22.
2019-03-22T10:56:20.358Z,22.
2019-03-22T10:56:30.531Z,22.
2019-03-22T10:56:40.693Z,22.
2019-03-22T10:56:50.861Z,22.
